Time;durP1;ratioP1;P1;durP2;ratioP2;P2;SDS_P1;SDS_P2;PMS_P1;PMS_P2;Temp;Humidity;BMP_temperature;BMP_pressure;BME280_temperature;BME280_humidity;BME280_pressure;Samples;Min_cycle;Max_cycle;Signal;HPM_P1;HPM_P2
2023/10/25 00:00:08;;;;;;;27.27;12.68;;;8.80;99.90;;;;;;5061939;28;20370;-93
2023/10/25 00:02:34;;;;;;;23.33;11.98;;;8.80;99.90;;;;;;5066184;28;20051;-93
2023/10/25 00:05:00;;;;;;;20.48;10.93;;;8.80;99.90;;;;;;5062360;28;20024;-92
2023/10/25 00:07:26;;;;;;;20.55;11.32;;;8.80;99.90;;;;;;5066757;28;20028;-93
2023/10/25 00:09:51;;;;;;;24.30;11.40;;;8.80;99.90;;;;;;5072722;28;20572;-89
2023/10/25 00:12:17;;;;;;;20.90;11.65;;;8.90;99.90;;;;;;5064186;28;20043;-93
2023/10/25 00:14:43;;;;;;;26.00;11.82;;;8.90;99.90;;;;;;5060713;28;20016;-89
2023/10/25 00:17:08;;;;;;;26.88;13.20;;;8.90;99.90;;;;;;5047469;28;20043;-89
2023/10/25 00:19:34;;;;;;;30.95;14.88;;;8.90;99.90;;;;;;5062824;28;20029;-90
2023/10/25 00:21:59;;;;;;;24.92;12.70;;;8.80;99.90;;;;;;5064469;28;20027;-90
2023/10/25 00:24:25;;;;;;;22.98;12.90;;;8.80;99.90;;;;;;5065422;28;20044;-91
2023/10/25 00:26:51;;;;;;;25.83;12.68;;;8.80;99.90;;;;;;5064006;28;20037;-91
2023/10/25 00:29:17;;;;;;;22.33;11.57;;;8.80;99.90;;;;;;5062616;28;20028;-91
2023/10/25 00:31:42;;;;;;;21.52;12.57;;;8.80;99.90;;;;;;5060224;28;20036;-91
2023/10/25 00:34:08;;;;;;;20.30;11.55;;;8.80;99.90;;;;;;5061054;28;20230;-91
2023/10/25 00:36:34;;;;;;;26.98;11.75;;;8.90;99.90;;;;;;5060921;28;20051;-92
2023/10/25 00:39:00;;;;;;;23.88;12.65;;;8.80;99.90;;;;;;5062067;28;20025;-91
2023/10/25 00:41:25;;;;;;;21.40;11.60;;;8.90;99.90;;;;;;5063057;28;20559;-91
2023/10/25 00:43:51;;;;;;;21.90;11.35;;;8.90;99.90;;;;;;5064137;28;20021;-92
2023/10/25 00:46:24;;;;;;;21.77;10.80;;;8.80;99.90;;;;;;5061338;28;20493;-92
2023/10/25 00:48:54;;;;;;;20.00;11.45;;;8.90;99.90;;;;;;5060538;28;20072;-91
2023/10/25 00:51:22;;;;;;;21.90;11.10;;;8.90;99.90;;;;;;5061979;28;20012;-91
2023/10/25 00:53:53;;;;;;;21.75;10.70;;;8.90;99.90;;;;;;5064492;28;20068;-91
2023/10/25 00:56:22;;;;;;;16.63;9.02;;;8.80;99.90;;;;;;5065751;28;20024;-91
2023/10/25 00:58:49;;;;;;;15.18;8.57;;;8.80;99.90;;;;;;5065012;28;20025;-91
2023/10/25 01:01:17;;;;;;;16.38;9.80;;;8.70;99.90;;;;;;5064377;28;20542;-91
2023/10/25 01:03:43;;;;;;;12.65;7.55;;;8.70;99.90;;;;;;5066703;28;20020;-91
2023/10/25 01:06:09;;;;;;;14.95;8.82;;;8.60;99.90;;;;;;5067759;28;20466;-91
2023/10/25 01:08:35;;;;;;;19.73;9.00;;;8.60;99.90;;;;;;5064031;28;20040;-92
2023/10/25 01:11:01;;;;;;;17.00;10.40;;;8.60;99.90;;;;;;5062915;28;20033;-90
2023/10/25 01:13:27;;;;;;;17.92;10.23;;;8.70;99.90;;;;;;5064489;28;20048;-91
2023/10/25 01:15:52;;;;;;;17.65;9.93;;;8.70;99.90;;;;;;5064229;28;20493;-91
2023/10/25 01:18:18;;;;;;;16.65;8.57;;;8.70;99.90;;;;;;5060506;28;20031;-92
2023/10/25 01:20:44;;;;;;;14.05;8.13;;;8.70;99.90;;;;;;5065661;28;20104;-92
2023/10/25 01:23:11;;;;;;;22.27;10.55;;;8.70;99.90;;;;;;5068384;28;20458;-90
2023/10/25 01:25:38;;;;;;;16.20;8.18;;;8.70;99.90;;;;;;5066870;28;20041;-90
2023/10/25 01:28:04;;;;;;;17.35;9.27;;;8.70;99.90;;;;;;5065790;28;20536;-92
2023/10/25 01:30:30;;;;;;;18.98;9.10;;;8.70;99.90;;;;;;5070391;28;20028;-90
2023/10/25 01:32:55;;;;;;;17.80;9.10;;;8.70;99.90;;;;;;5067211;28;20045;-92
2023/10/25 01:35:21;;;;;;;17.55;9.18;;;8.70;99.90;;;;;;5067526;28;20024;-92
2023/10/25 01:37:47;;;;;;;16.15;8.63;;;8.70;99.90;;;;;;5064613;28;20112;-91
2023/10/25 01:40:14;;;;;;;17.23;9.10;;;8.70;99.90;;;;;;5066461;28;20470;-90
2023/10/25 01:42:40;;;;;;;20.27;9.35;;;8.70;99.90;;;;;;5066865;28;20120;-91
2023/10/25 01:45:06;;;;;;;18.77;10.15;;;8.80;99.90;;;;;;5063353;28;20044;-91
2023/10/25 01:47:32;;;;;;;12.88;7.80;;;8.70;99.90;;;;;;5064488;28;20025;-91
2023/10/25 01:49:58;;;;;;;21.80;8.40;;;8.70;99.90;;;;;;5066402;28;20013;-91
2023/10/25 01:52:23;;;;;;;19.30;9.88;;;8.70;99.90;;;;;;5067968;28;20029;-90
2023/10/25 01:54:50;;;;;;;20.52;8.82;;;8.80;99.90;;;;;;5064452;28;20032;-90
2023/10/25 01:57:16;;;;;;;22.35;7.88;;;8.70;99.90;;;;;;5061934;28;20025;-91
2023/10/25 01:59:42;;;;;;;19.85;8.65;;;8.70;99.90;;;;;;5066888;28;20131;-90
2023/10/25 02:02:09;;;;;;;19.48;8.40;;;8.70;99.90;;;;;;5061111;28;20013;-91
2023/10/25 02:04:35;;;;;;;21.30;8.80;;;8.70;99.90;;;;;;5062520;28;20031;-90
2023/10/25 02:07:02;;;;;;;23.58;8.73;;;8.70;99.90;;;;;;5061988;28;20115;-91
2023/10/25 02:09:28;;;;;;;20.25;9.20;;;8.70;99.90;;;;;;5066822;28;20029;-90
2023/10/25 02:11:53;;;;;;;14.00;7.85;;;8.70;99.90;;;;;;5065565;28;20028;-91
2023/10/25 02:14:19;;;;;;;23.35;9.13;;;8.70;99.90;;;;;;5063207;28;20024;-90
2023/10/25 02:16:45;;;;;;;19.60;8.70;;;8.70;99.90;;;;;;5064989;28;20025;-91
2023/10/25 02:19:10;;;;;;;21.17;8.43;;;8.70;99.90;;;;;;5073222;28;20078;-91
2023/10/25 02:21:36;;;;;;;16.60;6.55;;;8.70;99.90;;;;;;5070262;28;20028;-92
2023/10/25 02:24:02;;;;;;;19.35;6.05;;;8.70;99.90;;;;;;5065955;28;20515;-91
2023/10/25 02:26:28;;;;;;;20.20;7.78;;;8.60;99.90;;;;;;5060686;28;20477;-88
2023/10/25 02:28:55;;;;;;;20.70;6.28;;;8.60;99.90;;;;;;5065496;28;20111;-91
2023/10/25 02:31:21;;;;;;;16.75;6.35;;;8.60;99.90;;;;;;5063910;28;20021;-92
2023/10/25 02:33:46;;;;;;;19.27;7.00;;;8.60;99.90;;;;;;5066437;28;20074;-92
2023/10/25 02:36:12;;;;;;;20.90;6.80;;;8.60;99.90;;;;;;5070848;28;20362;-90
2023/10/25 02:38:38;;;;;;;11.43;6.10;;;8.60;99.90;;;;;;5065033;28;20107;-91
2023/10/25 02:41:03;;;;;;;21.70;6.53;;;8.60;99.90;;;;;;5064104;28;20017;-91
2023/10/25 02:43:29;;;;;;;16.95;5.90;;;8.60;99.90;;;;;;5065119;28;20038;-91
2023/10/25 02:46:07;;;;;;;18.92;5.47;;;8.60;99.90;;;;;;5062862;28;20021;-91
2023/10/25 02:48:33;;;;;;;19.52;5.57;;;8.60;99.90;;;;;;5065066;28;20027;-91
2023/10/25 02:51:00;;;;;;;13.18;5.03;;;8.60;99.90;;;;;;5063669;28;20378;-92
2023/10/25 02:53:25;;;;;;;11.25;4.85;;;8.50;99.90;;;;;;5063035;28;20218;-91
2023/10/25 02:55:57;;;;;;;14.80;5.13;;;8.50;99.90;;;;;;5066932;28;20514;-91
2023/10/25 02:58:23;;;;;;;16.83;6.35;;;8.50;99.90;;;;;;5063643;28;20033;-91
2023/10/25 03:00:49;;;;;;;14.30;4.82;;;8.60;99.90;;;;;;5062492;28;20485;-90
2023/10/25 03:03:15;;;;;;;10.35;4.63;;;8.50;99.90;;;;;;5060624;28;20029;-91
2023/10/25 03:05:40;;;;;;;12.85;3.80;;;8.60;99.90;;;;;;5065693;28;20048;-91
2023/10/25 03:08:06;;;;;;;14.88;4.28;;;8.60;99.90;;;;;;5063098;28;20063;-92
2023/10/25 03:10:32;;;;;;;15.02;4.00;;;8.60;99.90;;;;;;5067167;28;20024;-90
2023/10/25 03:12:58;;;;;;;12.43;3.72;;;8.60;99.90;;;;;;5061386;28;20473;-91
2023/10/25 03:15:24;;;;;;;8.45;3.20;;;8.60;99.90;;;;;;5063969;28;20021;-91
2023/10/25 03:17:50;;;;;;;9.85;3.42;;;8.50;99.90;;;;;;5060767;28;20021;-90
2023/10/25 03:20:15;;;;;;;12.18;3.70;;;8.40;99.90;;;;;;5067062;28;20043;-91
2023/10/25 03:22:41;;;;;;;9.13;3.05;;;8.40;99.90;;;;;;5063112;28;20368;-91
2023/10/25 03:25:07;;;;;;;9.63;3.72;;;8.40;99.90;;;;;;5062351;28;20088;-90
2023/10/25 03:27:33;;;;;;;16.60;3.58;;;8.30;99.90;;;;;;5069847;28;20153;-91
2023/10/25 03:29:58;;;;;;;11.48;3.55;;;8.20;99.90;;;;;;5063523;28;20165;-90
2023/10/25 03:32:24;;;;;;;10.57;3.95;;;8.20;99.90;;;;;;5063617;28;20048;-91
2023/10/25 03:34:53;;;;;;;9.88;4.38;;;8.20;99.90;;;;;;5064010;28;20091;-91
2023/10/25 03:37:18;;;;;;;8.80;3.60;;;8.20;99.90;;;;;;5062077;28;20028;-91
2023/10/25 03:39:44;;;;;;;8.48;3.10;;;8.10;99.90;;;;;;5067199;28;20028;-91
2023/10/25 03:42:09;;;;;;;11.75;3.40;;;8.10;99.90;;;;;;5064567;28;20028;-90
2023/10/25 03:44:35;;;;;;;11.00;3.10;;;8.10;99.90;;;;;;5061708;28;20075;-91
2023/10/25 03:47:01;;;;;;;7.65;3.05;;;8.10;99.90;;;;;;5064591;28;20420;-90
2023/10/25 03:49:26;;;;;;;9.38;2.78;;;8.00;99.90;;;;;;5062028;28;20086;-91
2023/10/25 03:51:52;;;;;;;5.38;2.63;;;8.00;99.90;;;;;;5066531;28;20036;-91
2023/10/25 03:54:18;;;;;;;8.38;2.70;;;8.00;99.90;;;;;;5062310;28;20033;-92
2023/10/25 03:56:43;;;;;;;6.05;3.13;;;8.00;99.90;;;;;;5065413;28;20020;-91
2023/10/25 03:59:09;;;;;;;14.35;3.70;;;8.00;99.90;;;;;;5063570;28;20064;-91
2023/10/25 04:01:35;;;;;;;8.95;2.47;;;7.90;99.90;;;;;;5060762;28;20039;-91
2023/10/25 04:04:01;;;;;;;8.00;2.22;;;7.90;99.90;;;;;;5063802;28;20050;-89
2023/10/25 04:06:30;;;;;;;7.75;2.47;;;7.90;99.90;;;;;;5067015;28;20470;-91
2023/10/25 04:08:55;;;;;;;6.55;2.22;;;7.90;99.90;;;;;;5087616;28;20455;-90
2023/10/25 04:11:21;;;;;;;6.30;2.75;;;7.90;99.90;;;;;;5065155;28;20070;-90
2023/10/25 04:13:46;;;;;;;4.75;2.58;;;7.90;99.90;;;;;;5065924;28;20039;-91
2023/10/25 04:16:12;;;;;;;7.15;2.70;;;7.90;99.90;;;;;;5065239;28;20012;-91
2023/10/25 04:18:38;;;;;;;9.10;3.22;;;7.80;99.90;;;;;;5064053;28;20020;-91
2023/10/25 04:21:09;;;;;;;5.28;2.80;;;7.90;99.90;;;;;;5062440;28;20470;-91
2023/10/25 04:23:34;;;;;;;5.72;2.28;;;7.80;99.90;;;;;;5063689;28;20025;-90
2023/10/25 04:26:10;;;;;;;11.07;2.58;;;7.90;99.90;;;;;;5063459;28;20028;-91
2023/10/25 04:28:40;;;;;;;6.50;2.78;;;7.80;99.90;;;;;;5083550;28;20021;-91
2023/10/25 04:31:10;;;;;;;7.88;2.22;;;7.80;99.90;;;;;;5061007;28;20375;-90
2023/10/25 04:33:39;;;;;;;7.90;2.25;;;7.80;99.90;;;;;;5060676;28;20040;-91
2023/10/25 04:36:05;;;;;;;9.10;2.42;;;7.80;99.90;;;;;;5061520;28;20067;-90
2023/10/25 04:38:32;;;;;;;4.07;1.95;;;7.80;99.90;;;;;;5063106;28;20021;-91
2023/10/25 04:40:58;;;;;;;14.23;3.05;;;7.80;99.90;;;;;;5061612;28;20028;-90
2023/10/25 04:43:24;;;;;;;5.05;2.58;;;7.80;99.90;;;;;;5063367;28;20037;-90
2023/10/25 04:45:51;;;;;;;7.57;2.33;;;7.80;99.90;;;;;;5060951;28;20020;-91
2023/10/25 04:48:17;;;;;;;7.15;1.98;;;7.70;99.90;;;;;;5060108;28;20545;-91
2023/10/25 04:50:43;;;;;;;5.47;2.03;;;7.80;99.90;;;;;;5065437;28;20056;-92
2023/10/25 04:53:09;;;;;;;14.13;2.97;;;7.80;99.90;;;;;;5065658;28;20029;-91
2023/10/25 04:55:36;;;;;;;7.05;1.80;;;7.70;99.90;;;;;;5060851;28;20040;-91
2023/10/25 04:58:03;;;;;;;8.77;2.60;;;7.70;99.90;;;;;;5064163;28;20060;-91
2023/10/25 05:00:29;;;;;;;9.65;2.20;;;7.70;99.90;;;;;;5065601;28;20017;-91
2023/10/25 05:02:55;;;;;;;5.93;1.80;;;7.70;99.90;;;;;;5060584;28;20033;-91
2023/10/25 05:05:21;;;;;;;4.75;2.53;;;7.70;99.90;;;;;;5062525;28;20023;-91
2023/10/25 05:07:47;;;;;;;4.70;2.03;;;7.70;99.90;;;;;;5060378;28;20115;-90
2023/10/25 05:10:13;;;;;;;4.85;2.40;;;7.70;99.90;;;;;;5059881;28;20107;-91
2023/10/25 05:12:48;;;;;;;6.43;2.55;;;7.70;99.90;;;;;;5065657;28;20128;-91
2023/10/25 05:15:18;;;;;;;5.60;1.95;;;7.80;99.90;;;;;;5060149;28;20043;-91
2023/10/25 05:17:45;;;;;;;5.30;2.05;;;7.70;99.90;;;;;;5064821;28;20017;-91
2023/10/25 05:20:12;;;;;;;4.47;2.38;;;7.80;99.90;;;;;;5061231;28;20037;-91
2023/10/25 05:22:40;;;;;;;3.80;2.33;;;7.80;99.90;;;;;;5060538;28;20028;-90
2023/10/25 05:25:08;;;;;;;6.80;2.33;;;7.80;99.90;;;;;;5060373;28;20083;-91
2023/10/25 05:27:35;;;;;;;9.38;2.10;;;7.80;99.90;;;;;;5068966;28;20029;-91
2023/10/25 05:30:04;;;;;;;6.97;2.67;;;7.80;99.90;;;;;;5071877;28;20025;-90
2023/10/25 05:32:39;;;;;;;9.07;2.60;;;7.90;99.90;;;;;;5071695;28;20044;-90
2023/10/25 05:35:06;;;;;;;8.73;2.42;;;7.80;99.90;;;;;;5071958;28;20024;-90
2023/10/25 05:37:32;;;;;;;5.95;1.90;;;7.80;99.90;;;;;;5071972;28;20028;-91
2023/10/25 05:39:58;;;;;;;9.07;2.03;;;7.80;99.90;;;;;;5073504;28;20386;-90
2023/10/25 05:42:25;;;;;;;6.28;1.55;;;7.80;99.90;;;;;;5075626;28;20104;-91
2023/10/25 05:44:53;;;;;;;9.57;1.80;;;7.70;99.90;;;;;;5075422;28;20491;-91
2023/10/25 05:47:22;;;;;;;4.55;1.58;;;7.70;99.90;;;;;;5075225;28;20112;-90
2023/10/25 05:49:49;;;;;;;6.55;2.97;;;7.70;99.90;;;;;;5075137;28;20111;-90
2023/10/25 05:52:14;;;;;;;4.72;1.73;;;7.70;99.90;;;;;;5075329;28;20047;-89
2023/10/25 05:54:40;;;;;;;7.55;2.10;;;7.70;99.90;;;;;;5074890;28;20037;-91
2023/10/25 05:57:07;;;;;;;2.30;1.77;;;7.70;99.90;;;;;;5074999;28;20032;-90
2023/10/25 05:59:33;;;;;;;5.05;2.08;;;7.70;99.90;;;;;;5075191;28;20116;-91
2023/10/25 06:02:23;;;;;;;4.15;1.75;;;7.70;99.90;;;;;;5075208;28;20058;-91
2023/10/25 06:04:49;;;;;;;4.55;1.90;;;7.70;99.90;;;;;;5075124;28;20029;-91
2023/10/25 06:07:16;;;;;;;9.25;2.42;;;7.70;99.90;;;;;;5075014;28;20095;-91
2023/10/25 06:09:41;;;;;;;8.20;2.47;;;7.60;99.90;;;;;;5074868;28;20123;-91
2023/10/25 06:12:08;;;;;;;6.68;2.55;;;7.70;99.90;;;;;;5075119;28;20174;-92
2023/10/25 06:14:34;;;;;;;7.82;2.15;;;7.70;99.90;;;;;;5076078;28;20036;-91
2023/10/25 06:17:00;;;;;;;4.75;2.05;;;7.70;99.90;;;;;;5074719;28;20091;-90
2023/10/25 06:19:27;;;;;;;4.30;1.92;;;7.70;99.90;;;;;;5074965;28;20119;-91
2023/10/25 06:21:54;;;;;;;3.75;2.05;;;7.60;99.90;;;;;;5074801;28;20028;-90
2023/10/25 06:24:20;;;;;;;4.90;1.65;;;7.60;99.90;;;;;;5074657;28;20016;-91
2023/10/25 06:26:45;;;;;;;4.55;1.92;;;7.60;99.90;;;;;;5074901;28;20021;-91
2023/10/25 06:29:11;;;;;;;3.13;1.90;;;7.60;99.90;;;;;;5074446;28;20028;-92
2023/10/25 06:31:37;;;;;;;5.65;1.90;;;7.50;99.90;;;;;;5074314;28;20543;-90
2023/10/25 06:34:02;;;;;;;4.45;2.13;;;7.50;99.90;;;;;;5074359;28;20024;-92
2023/10/25 06:36:30;;;;;;;3.38;1.40;;;7.50;99.90;;;;;;5074833;28;20024;-90
2023/10/25 06:38:56;;;;;;;5.72;1.95;;;7.40;99.90;;;;;;5074164;28;20128;-92
2023/10/25 06:41:22;;;;;;;4.18;1.70;;;7.40;99.90;;;;;;5070936;28;20108;-91
2023/10/25 06:43:48;;;;;;;5.43;2.45;;;7.40;99.90;;;;;;5065237;28;20017;-92
2023/10/25 06:46:14;;;;;;;3.42;1.88;;;7.40;99.90;;;;;;5061777;28;20112;-93
2023/10/25 06:48:40;;;;;;;7.85;2.50;;;7.40;99.90;;;;;;5065053;28;20025;-91
2023/10/25 06:51:07;;;;;;;3.03;1.30;;;7.40;99.90;;;;;;5064786;28;20039;-91
2023/10/25 06:53:36;;;;;;;4.85;2.22;;;7.40;99.90;;;;;;5061312;28;20037;-91
2023/10/25 06:56:02;;;;;;;2.92;1.65;;;7.40;99.90;;;;;;5062069;28;20020;-92
2023/10/25 06:58:28;;;;;;;4.22;1.77;;;7.40;99.90;;;;;;5063026;28;20032;-90
2023/10/25 07:00:56;;;;;;;2.53;1.40;;;7.30;99.90;;;;;;5067451;28;20027;-92
2023/10/25 07:03:29;;;;;;;2.78;1.33;;;7.30;99.90;;;;;;5074492;28;20055;-89
2023/10/25 07:05:56;;;;;;;4.40;1.23;;;7.30;99.90;;;;;;5073895;28;20033;-90
2023/10/25 07:08:22;;;;;;;3.30;1.20;;;7.30;99.90;;;;;;5073479;28;20375;-89
2023/10/25 07:10:48;;;;;;;7.03;2.10;;;7.20;99.90;;;;;;5073497;28;20074;-90
2023/10/25 07:13:13;;;;;;;4.63;1.90;;;7.20;99.90;;;;;;5073522;28;20043;-90
2023/10/25 07:15:39;;;;;;;2.83;1.58;;;7.10;99.90;;;;;;5074255;28;20024;-90
2023/10/25 07:18:05;;;;;;;6.10;1.88;;;7.10;99.90;;;;;;5073515;28;20595;-91
2023/10/25 07:20:31;;;;;;;3.45;1.45;;;7.00;99.90;;;;;;5068304;28;20086;-90
2023/10/25 07:22:57;;;;;;;2.58;1.42;;;7.10;99.90;;;;;;5053203;28;20029;-89
2023/10/25 07:25:23;;;;;;;3.30;1.50;;;7.10;99.90;;;;;;5061498;28;20037;-92
2023/10/25 07:27:49;;;;;;;7.15;1.70;;;7.00;99.90;;;;;;5063919;28;20470;-91
2023/10/25 07:30:15;;;;;;;4.18;1.90;;;7.10;99.90;;;;;;5062447;28;20052;-92
2023/10/25 07:32:42;;;;;;;4.93;1.58;;;7.10;99.90;;;;;;5064770;28;20552;-92
2023/10/25 07:35:08;;;;;;;6.10;1.65;;;7.00;99.90;;;;;;5062889;28;20028;-92
2023/10/25 07:37:33;;;;;;;4.25;1.95;;;6.90;99.90;;;;;;5061068;28;20020;-92
2023/10/25 07:39:59;;;;;;;8.18;3.10;;;6.90;99.90;;;;;;5069488;28;20028;-91
2023/10/25 07:42:25;;;;;;;10.30;4.88;;;6.90;99.90;;;;;;5072349;28;20054;-91
2023/10/25 07:44:50;;;;;;;8.15;2.10;;;6.80;99.90;;;;;;5072851;28;20036;-91
2023/10/25 07:47:17;;;;;;;6.43;2.63;;;6.80;99.90;;;;;;5071555;28;20032;-92
2023/10/25 07:49:46;;;;;;;7.53;3.10;;;6.80;99.90;;;;;;5065724;28;20035;-92
2023/10/25 07:52:13;;;;;;;4.43;2.00;;;6.80;99.90;;;;;;5068164;28;20032;-88
2023/10/25 07:54:38;;;;;;;7.22;2.58;;;6.90;99.90;;;;;;5062831;28;20078;-90
2023/10/25 07:57:04;;;;;;;6.70;2.90;;;7.00;99.90;;;;;;5068433;28;20017;-89
2023/10/25 07:59:30;;;;;;;9.50;3.15;;;7.10;99.90;;;;;;5063456;28;20028;-89
2023/10/25 08:01:58;;;;;;;5.50;3.13;;;7.20;99.90;;;;;;5063198;28;20078;-91
2023/10/25 08:04:25;;;;;;;21.73;4.10;;;7.30;99.90;;;;;;5061659;28;20378;-90
2023/10/25 08:06:50;;;;;;;6.22;2.72;;;7.40;99.90;;;;;;5062867;28;20028;-90
2023/10/25 08:09:16;;;;;;;6.35;3.25;;;7.40;99.90;;;;;;5060660;28;20093;-90
2023/10/25 08:11:42;;;;;;;7.60;3.40;;;7.40;99.90;;;;;;5068786;28;20359;-90
2023/10/25 08:14:09;;;;;;;7.00;3.78;;;7.50;99.90;;;;;;5060117;28;20391;-90
2023/10/25 08:16:39;;;;;;;8.68;3.95;;;7.60;99.90;;;;;;5072627;28;20519;-92
2023/10/25 08:19:06;;;;;;;8.23;3.20;;;7.60;99.90;;;;;;5063307;28;20057;-92
2023/10/25 08:21:35;;;;;;;10.70;4.28;;;7.60;99.90;;;;;;5066683;28;20036;-92
2023/10/25 08:24:01;;;;;;;5.93;3.30;;;7.60;99.90;;;;;;5061364;28;20021;-92
2023/10/25 08:26:27;;;;;;;8.52;3.60;;;7.60;99.90;;;;;;5066145;28;20065;-91
2023/10/25 08:28:52;;;;;;;6.95;3.80;;;7.70;99.90;;;;;;5060404;28;20108;-91
2023/10/25 08:31:19;;;;;;;10.82;4.57;;;7.70;99.90;;;;;;5062635;28;20016;-91
2023/10/25 08:33:45;;;;;;;6.95;4.15;;;7.70;99.90;;;;;;5066415;28;20056;-93
2023/10/25 08:36:11;;;;;;;7.25;4.07;;;7.70;99.90;;;;;;5074281;28;20558;-92
2023/10/25 08:38:37;;;;;;;9.80;4.47;;;7.80;99.90;;;;;;5062024;28;20033;-92
2023/10/25 08:41:02;;;;;;;6.15;4.30;;;7.80;99.90;;;;;;5067529;28;20035;-94
2023/10/25 08:43:28;;;;;;;8.05;4.40;;;7.80;99.90;;;;;;5078226;28;20506;-94
2023/10/25 08:45:56;;;;;;;9.13;5.05;;;7.90;99.90;;;;;;5078970;28;20031;-94
2023/10/25 08:48:24;;;;;;;15.40;4.60;;;8.00;99.90;;;;;;5077242;28;20547;-94
2023/10/25 08:50:50;;;;;;;64.75;6.30;;;8.00;99.90;;;;;;5088023;28;20032;-93
2023/10/25 08:53:23;;;;;;;28.42;5.15;;;8.00;99.90;;;;;;5087155;28;20036;-92
2023/10/25 08:55:54;;;;;;;20.00;5.53;;;8.00;99.90;;;;;;5094403;28;20059;-92
2023/10/25 08:58:20;;;;;;;33.00;6.78;;;8.00;99.90;;;;;;5095492;28;20023;-93
2023/10/25 09:00:47;;;;;;;17.40;4.97;;;8.00;99.90;;;;;;5093561;28;20009;-93
2023/10/25 09:03:31;;;;;;;10.55;5.18;;;8.00;99.90;;;;;;5093157;28;20028;-93
2023/10/25 09:06:04;;;;;;;39.60;6.60;;;8.00;99.90;;;;;;5093156;28;20088;-93
2023/10/25 09:08:32;;;;;;;31.88;6.15;;;8.10;99.90;;;;;;5091281;28;20107;-93
2023/10/25 09:11:03;;;;;;;15.95;5.00;;;8.10;99.90;;;;;;5088851;28;20020;-94
2023/10/25 09:13:33;;;;;;;11.40;4.60;;;8.00;99.90;;;;;;5085676;28;20036;-92
2023/10/25 09:16:13;;;;;;;10.68;4.88;;;8.10;99.90;;;;;;5087986;28;20051;-93
2023/10/25 09:18:39;;;;;;;7.47;4.53;;;8.10;99.90;;;;;;5107572;28;20036;-95
2023/10/25 09:21:07;;;;;;;7.45;4.72;;;8.10;99.90;;;;;;5086472;28;20047;-93
2023/10/25 09:23:35;;;;;;;10.75;4.97;;;8.20;99.90;;;;;;5075885;28;20024;-95
2023/10/25 09:26:04;;;;;;;13.30;5.68;;;8.30;99.90;;;;;;5076214;28;20047;-96
2023/10/25 09:28:31;;;;;;;10.75;4.88;;;8.40;99.90;;;;;;5097689;28;20027;-94
2023/10/25 09:30:58;;;;;;;24.90;6.80;;;8.40;99.90;;;;;;5110350;28;20123;-95
2023/10/25 09:33:28;;;;;;;14.80;5.90;;;8.50;99.90;;;;;;5102094;28;20646;-95
2023/10/25 09:35:54;;;;;;;11.85;6.25;;;8.50;99.90;;;;;;5108813;28;20016;-96
2023/10/25 09:38:20;;;;;;;12.05;5.65;;;8.50;99.90;;;;;;5102464;28;20497;-96
2023/10/25 09:40:46;;;;;;;40.30;7.88;;;8.50;99.90;;;;;;5109472;28;20031;-96
2023/10/25 09:43:21;;;;;;;28.58;5.50;;;8.50;99.90;;;;;;5106603;28;20050;-95
2023/10/25 09:45:56;;;;;;;9.73;5.38;;;8.60;99.90;;;;;;5106837;28;20139;-96
2023/10/25 09:48:22;;;;;;;10.13;5.68;;;8.60;99.90;;;;;;5111106;28;20035;-96
2023/10/25 09:51:06;;;;;;;15.02;6.35;;;8.80;99.90;;;;;;5111190;28;20020;-93
2023/10/25 09:53:52;;;;;;;12.07;6.47;;;8.90;99.90;;;;;;5111828;28;20044;-95
2023/10/25 09:56:19;;;;;;;17.95;5.78;;;9.10;99.90;;;;;;5113725;28;20032;-95
2023/10/25 09:58:47;;;;;;;13.90;6.50;;;9.20;99.90;;;;;;5072039;28;20028;-96
2023/10/25 10:01:13;;;;;;;11.95;6.43;;;9.30;99.90;;;;;;5065881;28;20032;-96
2023/10/25 10:03:54;;;;;;;16.80;6.70;;;9.50;99.90;;;;;;5105668;28;20020;-95
2023/10/25 10:06:32;;;;;;;21.15;5.38;;;9.70;99.90;;;;;;5104884;28;20039;-96
2023/10/25 10:09:10;;;;;;;10.93;6.38;;;9.80;99.90;;;;;;5078103;28;20477;-96
2023/10/25 10:11:51;;;;;;;9.68;4.10;;;10.00;99.90;;;;;;5079771;28;20075;-96
2023/10/25 10:14:37;;;;;;;7.20;4.25;;;10.00;99.90;;;;;;5082897;28;20592;-93
2023/10/25 10:17:08;;;;;;;10.20;4.63;;;10.10;99.90;;;;;;5084455;28;20043;-96
2023/10/25 10:19:37;;;;;;;9.25;4.20;;;10.30;99.90;;;;;;5101940;28;20031;-96
2023/10/25 10:22:14;;;;;;;9.07;4.63;;;10.40;99.90;;;;;;5107103;28;20024;-94
2023/10/25 10:24:45;;;;;;;6.03;3.88;;;10.70;99.90;;;;;;5087687;28;20020;-96
2023/10/25 10:27:20;;;;;;;7.07;3.78;;;11.00;99.90;;;;;;5081751;28;20031;-96
2023/10/25 10:29:46;;;;;;;7.00;3.67;;;11.30;99.90;;;;;;5099085;28;20031;-95
2023/10/25 10:32:13;;;;;;;6.65;3.45;;;11.70;99.90;;;;;;5080752;28;20048;-94
2023/10/25 10:34:49;;;;;;;6.28;3.05;;;12.10;99.90;;;;;;5078808;28;20028;-96
2023/10/25 10:37:20;;;;;;;5.78;2.53;;;12.60;99.90;;;;;;5088117;28;20091;-96
2023/10/25 10:40:01;;;;;;;4.03;2.83;;;13.10;99.90;;;;;;5087350;28;20032;-95
2023/10/25 10:42:33;;;;;;;5.55;2.90;;;13.50;99.90;;;;;;5071193;28;20025;-93
2023/10/25 10:45:08;;;;;;;5.50;2.22;;;13.90;99.90;;;;;;5077531;28;20058;-95
2023/10/25 10:47:41;;;;;;;4.68;2.85;;;14.30;99.90;;;;;;5063001;28;20032;-96
2023/10/25 10:50:15;;;;;;;9.80;3.92;;;14.70;99.90;;;;;;5081018;28;20028;-93
2023/10/25 10:52:42;;;;;;;7.20;3.08;;;15.00;99.90;;;;;;5075505;28;20037;-93
2023/10/25 10:55:10;;;;;;;8.23;3.70;;;15.20;99.90;;;;;;5073482;28;20047;-96
2023/10/25 10:57:37;;;;;;;9.50;2.97;;;15.40;99.90;;;;;;5068778;28;20032;-95
2023/10/25 11:00:08;;;;;;;6.50;2.33;;;15.60;99.90;;;;;;5075545;28;20398;-93
2023/10/25 11:02:36;;;;;;;11.00;2.22;;;15.90;99.90;;;;;;5093676;28;20024;-95
2023/10/25 11:05:03;;;;;;;13.00;3.92;;;16.20;99.90;;;;;;5092607;28;20044;-94
2023/10/25 11:07:28;;;;;;;7.65;2.30;;;16.30;99.90;;;;;;5079429;28;20055;-94
2023/10/25 11:09:55;;;;;;;6.45;2.13;;;16.40;99.90;;;;;;5088807;28;20028;-95
2023/10/25 11:12:24;;;;;;;4.65;1.70;;;16.60;99.90;;;;;;5082255;28;20021;-93
2023/10/25 11:15:01;;;;;;;10.55;1.70;;;16.80;99.90;;;;;;5070424;28;20025;-93
2023/10/25 11:17:28;;;;;;;4.63;1.00;;;16.90;99.90;;;;;;5076136;28;20067;-96
2023/10/25 11:19:53;;;;;;;1.55;0.73;;;17.10;99.90;;;;;;5101219;28;20089;-96
2023/10/25 11:22:20;;;;;;;2.80;0.80;;;17.20;99.90;;;;;;5093080;28;20028;-92
2023/10/25 11:24:51;;;;;;;5.10;1.65;;;17.20;99.90;;;;;;5085828;28;20074;-96
2023/10/25 11:27:16;;;;;;;;;;;17.40;99.90;;;;;;5078450;28;20020;-94
2023/10/25 11:29:42;;;;;;;1.92;0.60;;;17.70;99.90;;;;;;5069240;28;19915;-93
2023/10/25 11:32:14;;;;;;;1.90;0.50;;;17.50;99.90;;;;;;5065020;28;20041;-94
2023/10/25 11:34:47;;;;;;;1.73;0.40;;;17.30;99.90;;;;;;5075941;28;20438;-95
2023/10/25 11:37:19;;;;;;;1.52;0.52;;;16.80;99.90;;;;;;5096220;28;20021;-91
2023/10/25 11:40:05;;;;;;;2.90;0.80;;;16.70;99.90;;;;;;5095593;28;20076;-94
2023/10/25 11:42:32;;;;;;;4.55;1.38;;;16.70;99.90;;;;;;5096454;28;20112;-96
2023/10/25 11:45:08;;;;;;;2.78;0.60;;;16.90;99.90;;;;;;5107183;28;20032;-96
2023/10/25 11:47:37;;;;;;;4.30;1.17;;;17.30;99.90;;;;;;5099093;28;20054;-95
2023/10/25 11:50:05;;;;;;;3.25;0.77;;;17.50;99.90;;;;;;5111930;28;20095;-96
2023/10/25 11:52:31;;;;;;;13.07;4.60;;;17.70;98.40;;;;;;5102818;28;20032;-94
2023/10/25 11:55:01;;;;;;;13.68;4.72;;;18.00;97.60;;;;;;5093995;28;20028;-96
2023/10/25 11:57:36;;;;;;;6.07;2.53;;;18.10;95.70;;;;;;5077517;28;20047;-96
2023/10/25 12:00:03;;;;;;;4.35;1.50;;;18.20;94.90;;;;;;5079656;28;20021;-95
2023/10/25 12:02:28;;;;;;;5.03;1.40;;;18.20;94.50;;;;;;5092440;28;20041;-94
2023/10/25 12:04:56;;;;;;;3.63;1.30;;;18.30;93.10;;;;;;5092330;28;20465;-94
2023/10/25 12:07:23;;;;;;;4.07;0.80;;;18.30;93.00;;;;;;5096479;28;20024;-93
2023/10/25 12:09:50;;;;;;;2.53;0.75;;;18.50;92.50;;;;;;5096622;28;20032;-96
2023/10/25 12:12:16;;;;;;;4.97;1.08;;;18.60;91.10;;;;;;5112613;28;20016;-92
2023/10/25 12:14:43;;;;;;;2.55;0.80;;;18.50;90.40;;;;;;5107686;28;20021;-91
2023/10/25 12:17:11;;;;;;;1.23;0.65;;;18.50;90.40;;;;;;5096915;28;20020;-93
2023/10/25 12:19:39;;;;;;;1.83;1.02;;;18.60;89.50;;;;;;5094398;28;20092;-93
2023/10/25 12:22:08;;;;;;;2.67;0.90;;;18.60;88.50;;;;;;5096965;28;20039;-94
2023/10/25 12:24:36;;;;;;;1.48;1.20;;;18.30;87.90;;;;;;5096192;28;20043;-95
2023/10/25 12:27:03;;;;;;;3.30;1.23;;;18.30;88.30;;;;;;5095806;28;20050;-93
2023/10/25 12:29:30;;;;;;;5.32;1.05;;;18.30;88.30;;;;;;5074261;28;20024;-94
2023/10/25 12:31:56;;;;;;;2.30;0.98;;;18.20;86.80;;;;;;5088816;28;20079;-96
2023/10/25 12:34:22;;;;;;;2.38;1.00;;;18.20;86.70;;;;;;5092798;28;20020;-93
2023/10/25 12:36:49;;;;;;;5.15;1.25;;;18.20;86.00;;;;;;5105663;28;20087;-95
2023/10/25 12:39:16;;;;;;;1.63;0.93;;;18.30;86.30;;;;;;5108403;28;20096;-96
2023/10/25 12:41:42;;;;;;;2.30;0.98;;;18.70;86.10;;;;;;5089848;28;20020;-95
2023/10/25 12:44:13;;;;;;;2.63;1.10;;;19.00;85.30;;;;;;5085064;28;20021;-95
2023/10/25 12:46:40;;;;;;;2.95;1.10;;;19.20;83.90;;;;;;5086552;28;20033;-96
2023/10/25 12:49:06;;;;;;;1.35;0.82;;;19.20;82.80;;;;;;5084413;28;20035;-95
2023/10/25 12:51:32;;;;;;;1.45;0.80;;;19.20;82.50;;;;;;5089224;28;20024;-94